sensor_id;sensor_type;location;lat;lon;timestamp;P1;durP1;ratioP1;P2;durP2;ratioP2
19579;SDS011;9936;51.040;13.918;2023-12-07T00:01:01;19.80;;;11.70;;
19579;SDS011;9936;51.040;13.918;2023-12-07T00:04:47;19.90;;;12.20;;
19579;SDS011;9936;51.040;13.918;2023-12-07T00:08:32;19.63;;;11.70;;
19579;SDS011;9936;51.040;13.918;2023-12-07T00:12:18;19.60;;;12.20;;
19579;SDS011;9936;51.040;13.918;2023-12-07T00:16:03;19.70;;;12.57;;
19579;SDS011;9936;51.040;13.918;2023-12-07T00:19:52;20.70;;;12.27;;
19579;SDS011;9936;51.040;13.918;2023-12-07T00:23:38;18.93;;;12.30;;
19579;SDS011;9936;51.040;13.918;2023-12-07T00:27:24;20.30;;;12.37;;
19579;SDS011;9936;51.040;13.918;2023-12-07T00:31:10;18.73;;;12.17;;
19579;SDS011;9936;51.040;13.918;2023-12-07T00:34:55;19.93;;;11.63;;
19579;SDS011;9936;51.040;13.918;2023-12-07T00:38:41;19.47;;;12.37;;
19579;SDS011;9936;51.040;13.918;2023-12-07T00:42:27;20.87;;;12.20;;
19579;SDS011;9936;51.040;13.918;2023-12-07T00:46:13;16.57;;;11.33;;
19579;SDS011;9936;51.040;13.918;2023-12-07T00:49:58;19.17;;;11.60;;
19579;SDS011;9936;51.040;13.918;2023-12-07T00:53:44;19.80;;;12.40;;
19579;SDS011;9936;51.040;13.918;2023-12-07T00:57:29;20.20;;;12.20;;
19579;SDS011;9936;51.040;13.918;2023-12-07T01:01:15;16.93;;;10.97;;
19579;SDS011;9936;51.040;13.918;2023-12-07T01:05:01;18.30;;;11.77;;
19579;SDS011;9936;51.040;13.918;2023-12-07T01:08:46;20.40;;;12.50;;
19579;SDS011;9936;51.040;13.918;2023-12-07T01:12:32;17.80;;;11.50;;
19579;SDS011;9936;51.040;13.918;2023-12-07T01:16:17;17.47;;;11.33;;
19579;SDS011;9936;51.040;13.918;2023-12-07T01:20:04;19.73;;;12.57;;
19579;SDS011;9936;51.040;13.918;2023-12-07T01:23:56;19.33;;;11.90;;
19579;SDS011;9936;51.040;13.918;2023-12-07T01:27:43;17.90;;;11.60;;
19579;SDS011;9936;51.040;13.918;2023-12-07T01:31:29;17.43;;;11.50;;
19579;SDS011;9936;51.040;13.918;2023-12-07T01:35:15;20.20;;;12.03;;
19579;SDS011;9936;51.040;13.918;2023-12-07T01:39:00;22.23;;;13.63;;
19579;SDS011;9936;51.040;13.918;2023-12-07T01:42:50;20.07;;;12.30;;
19579;SDS011;9936;51.040;13.918;2023-12-07T01:46:36;19.23;;;12.37;;
19579;SDS011;9936;51.040;13.918;2023-12-07T01:50:22;18.83;;;11.83;;
19579;SDS011;9936;51.040;13.918;2023-12-07T01:54:08;20.97;;;12.17;;
19579;SDS011;9936;51.040;13.918;2023-12-07T01:57:54;20.50;;;11.63;;
19579;SDS011;9936;51.040;13.918;2023-12-07T02:01:40;18.07;;;11.67;;
19579;SDS011;9936;51.040;13.918;2023-12-07T02:05:26;19.33;;;12.10;;
19579;SDS011;9936;51.040;13.918;2023-12-07T02:09:11;16.57;;;11.00;;
19579;SDS011;9936;51.040;13.918;2023-12-07T02:12:57;21.80;;;12.17;;
19579;SDS011;9936;51.040;13.918;2023-12-07T02:16:44;21.97;;;13.10;;
19579;SDS011;9936;51.040;13.918;2023-12-07T02:20:35;20.87;;;13.17;;
19579;SDS011;9936;51.040;13.918;2023-12-07T02:24:31;21.53;;;12.77;;
19579;SDS011;9936;51.040;13.918;2023-12-07T02:28:19;18.83;;;12.47;;
19579;SDS011;9936;51.040;13.918;2023-12-07T02:32:05;20.63;;;13.33;;
19579;SDS011;9936;51.040;13.918;2023-12-07T02:35:50;21.30;;;12.27;;
19579;SDS011;9936;51.040;13.918;2023-12-07T02:39:36;22.23;;;13.20;;
19579;SDS011;9936;51.040;13.918;2023-12-07T02:43:23;21.53;;;13.57;;
19579;SDS011;9936;51.040;13.918;2023-12-07T02:47:08;21.80;;;13.10;;
19579;SDS011;9936;51.040;13.918;2023-12-07T02:50:54;24.07;;;14.00;;
19579;SDS011;9936;51.040;13.918;2023-12-07T02:54:40;23.63;;;13.70;;
19579;SDS011;9936;51.040;13.918;2023-12-07T02:58:25;26.07;;;14.00;;
19579;SDS011;9936;51.040;13.918;2023-12-07T03:02:11;25.63;;;14.40;;
19579;SDS011;9936;51.040;13.918;2023-12-07T03:05:56;25.67;;;14.90;;
19579;SDS011;9936;51.040;13.918;2023-12-07T03:09:42;24.27;;;13.63;;
19579;SDS011;9936;51.040;13.918;2023-12-07T03:13:28;23.33;;;13.97;;
19579;SDS011;9936;51.040;13.918;2023-12-07T03:17:13;23.63;;;14.70;;
19579;SDS011;9936;51.040;13.918;2023-12-07T03:21:01;25.23;;;14.30;;
19579;SDS011;9936;51.040;13.918;2023-12-07T03:24:50;25.70;;;14.60;;
19579;SDS011;9936;51.040;13.918;2023-12-07T03:28:36;26.97;;;14.20;;
19579;SDS011;9936;51.040;13.918;2023-12-07T03:32:22;26.93;;;14.97;;
19579;SDS011;9936;51.040;13.918;2023-12-07T03:36:10;28.00;;;15.73;;
19579;SDS011;9936;51.040;13.918;2023-12-07T03:39:56;26.33;;;14.80;;
19579;SDS011;9936;51.040;13.918;2023-12-07T03:43:42;28.17;;;14.70;;
19579;SDS011;9936;51.040;13.918;2023-12-07T03:47:28;26.07;;;15.00;;
19579;SDS011;9936;51.040;13.918;2023-12-07T03:51:13;24.67;;;15.13;;
19579;SDS011;9936;51.040;13.918;2023-12-07T03:55:01;26.30;;;14.93;;
19579;SDS011;9936;51.040;13.918;2023-12-07T03:58:47;27.87;;;15.57;;
19579;SDS011;9936;51.040;13.918;2023-12-07T04:02:32;32.33;;;17.93;;
19579;SDS011;9936;51.040;13.918;2023-12-07T04:06:19;29.30;;;17.53;;
19579;SDS011;9936;51.040;13.918;2023-12-07T04:10:05;33.93;;;18.53;;
19579;SDS011;9936;51.040;13.918;2023-12-07T04:13:52;33.63;;;19.63;;
19579;SDS011;9936;51.040;13.918;2023-12-07T04:17:37;31.67;;;18.87;;
19579;SDS011;9936;51.040;13.918;2023-12-07T04:21:23;32.33;;;18.73;;
19579;SDS011;9936;51.040;13.918;2023-12-07T04:25:08;27.70;;;17.07;;
19579;SDS011;9936;51.040;13.918;2023-12-07T04:28:54;30.57;;;17.03;;
19579;SDS011;9936;51.040;13.918;2023-12-07T04:32:40;31.77;;;17.40;;
19579;SDS011;9936;51.040;13.918;2023-12-07T04:36:25;27.47;;;16.03;;
19579;SDS011;9936;51.040;13.918;2023-12-07T04:40:11;27.93;;;15.20;;
19579;SDS011;9936;51.040;13.918;2023-12-07T04:43:57;26.63;;;14.63;;
19579;SDS011;9936;51.040;13.918;2023-12-07T04:47:42;25.63;;;15.13;;
19579;SDS011;9936;51.040;13.918;2023-12-07T04:51:28;28.10;;;16.10;;
19579;SDS011;9936;51.040;13.918;2023-12-07T04:55:14;28.83;;;15.87;;
19579;SDS011;9936;51.040;13.918;2023-12-07T04:59:01;30.23;;;15.93;;
19579;SDS011;9936;51.040;13.918;2023-12-07T05:02:46;28.23;;;15.10;;
19579;SDS011;9936;51.040;13.918;2023-12-07T05:06:34;30.43;;;16.37;;
19579;SDS011;9936;51.040;13.918;2023-12-07T05:10:20;29.00;;;15.30;;
19579;SDS011;9936;51.040;13.918;2023-12-07T05:14:06;26.83;;;14.83;;
19579;SDS011;9936;51.040;13.918;2023-12-07T05:17:52;24.97;;;14.80;;
19579;SDS011;9936;51.040;13.918;2023-12-07T05:21:37;27.80;;;14.90;;
19579;SDS011;9936;51.040;13.918;2023-12-07T05:25:23;27.00;;;15.43;;
19579;SDS011;9936;51.040;13.918;2023-12-07T05:29:17;27.10;;;14.80;;
19579;SDS011;9936;51.040;13.918;2023-12-07T05:33:04;26.37;;;14.93;;
19579;SDS011;9936;51.040;13.918;2023-12-07T05:36:49;29.87;;;15.97;;
19579;SDS011;9936;51.040;13.918;2023-12-07T05:40:38;28.67;;;15.60;;
19579;SDS011;9936;51.040;13.918;2023-12-07T05:44:24;29.07;;;15.20;;
19579;SDS011;9936;51.040;13.918;2023-12-07T05:48:10;31.07;;;14.93;;
19579;SDS011;9936;51.040;13.918;2023-12-07T05:51:56;26.17;;;14.63;;
19579;SDS011;9936;51.040;13.918;2023-12-07T05:55:44;26.93;;;14.60;;
19579;SDS011;9936;51.040;13.918;2023-12-07T05:59:29;30.17;;;14.73;;
19579;SDS011;9936;51.040;13.918;2023-12-07T06:03:15;25.53;;;15.00;;
19579;SDS011;9936;51.040;13.918;2023-12-07T06:07:02;25.43;;;14.83;;
19579;SDS011;9936;51.040;13.918;2023-12-07T06:10:48;27.60;;;14.97;;
19579;SDS011;9936;51.040;13.918;2023-12-07T06:14:34;23.87;;;14.57;;
19579;SDS011;9936;51.040;13.918;2023-12-07T06:18:24;28.03;;;14.93;;
19579;SDS011;9936;51.040;13.918;2023-12-07T06:22:09;26.43;;;15.10;;
19579;SDS011;9936;51.040;13.918;2023-12-07T06:25:57;26.50;;;14.37;;
19579;SDS011;9936;51.040;13.918;2023-12-07T06:29:43;28.63;;;14.90;;
19579;SDS011;9936;51.040;13.918;2023-12-07T06:33:29;25.30;;;14.43;;
19579;SDS011;9936;51.040;13.918;2023-12-07T06:37:14;28.20;;;15.20;;
19579;SDS011;9936;51.040;13.918;2023-12-07T06:41:00;27.27;;;15.17;;
19579;SDS011;9936;51.040;13.918;2023-12-07T06:44:46;30.13;;;15.17;;
19579;SDS011;9936;51.040;13.918;2023-12-07T06:48:34;28.13;;;15.50;;
19579;SDS011;9936;51.040;13.918;2023-12-07T06:52:20;27.97;;;16.10;;
19579;SDS011;9936;51.040;13.918;2023-12-07T06:56:05;32.27;;;17.03;;
19579;SDS011;9936;51.040;13.918;2023-12-07T06:59:53;29.63;;;15.80;;
19579;SDS011;9936;51.040;13.918;2023-12-07T07:03:38;31.10;;;16.70;;
19579;SDS011;9936;51.040;13.918;2023-12-07T07:07:24;29.97;;;15.47;;
19579;SDS011;9936;51.040;13.918;2023-12-07T07:11:12;27.00;;;15.83;;
19579;SDS011;9936;51.040;13.918;2023-12-07T07:15:01;26.87;;;15.27;;
19579;SDS011;9936;51.040;13.918;2023-12-07T07:18:46;32.50;;;17.27;;
19579;SDS011;9936;51.040;13.918;2023-12-07T07:22:32;30.77;;;16.57;;
19579;SDS011;9936;51.040;13.918;2023-12-07T07:26:19;30.73;;;15.93;;
19579;SDS011;9936;51.040;13.918;2023-12-07T07:30:05;31.30;;;16.03;;
19579;SDS011;9936;51.040;13.918;2023-12-07T07:33:51;31.17;;;15.83;;
19579;SDS011;9936;51.040;13.918;2023-12-07T07:37:37;28.97;;;16.27;;
19579;SDS011;9936;51.040;13.918;2023-12-07T07:41:23;33.97;;;17.27;;
19579;SDS011;9936;51.040;13.918;2023-12-07T07:45:09;29.93;;;16.37;;
19579;SDS011;9936;51.040;13.918;2023-12-07T07:48:55;30.17;;;16.37;;
19579;SDS011;9936;51.040;13.918;2023-12-07T07:52:41;34.33;;;16.30;;
19579;SDS011;9936;51.040;13.918;2023-12-07T07:56:26;28.00;;;15.30;;
19579;SDS011;9936;51.040;13.918;2023-12-07T08:00:12;28.83;;;15.00;;
19579;SDS011;9936;51.040;13.918;2023-12-07T08:03:59;28.23;;;15.53;;
19579;SDS011;9936;51.040;13.918;2023-12-07T08:07:44;34.00;;;18.17;;
19579;SDS011;9936;51.040;13.918;2023-12-07T08:11:30;37.83;;;19.10;;
19579;SDS011;9936;51.040;13.918;2023-12-07T08:15:17;35.03;;;17.27;;
19579;SDS011;9936;51.040;13.918;2023-12-07T08:19:03;28.37;;;15.80;;
19579;SDS011;9936;51.040;13.918;2023-12-07T08:22:49;29.60;;;15.73;;
19579;SDS011;9936;51.040;13.918;2023-12-07T08:26:35;28.27;;;16.10;;
19579;SDS011;9936;51.040;13.918;2023-12-07T08:30:20;29.03;;;15.73;;
19579;SDS011;9936;51.040;13.918;2023-12-07T08:34:06;27.03;;;15.23;;
19579;SDS011;9936;51.040;13.918;2023-12-07T08:37:52;30.10;;;16.00;;
19579;SDS011;9936;51.040;13.918;2023-12-07T08:41:37;28.53;;;15.50;;
19579;SDS011;9936;51.040;13.918;2023-12-07T08:45:23;28.40;;;15.23;;
19579;SDS011;9936;51.040;13.918;2023-12-07T08:49:09;29.57;;;15.43;;
19579;SDS011;9936;51.040;13.918;2023-12-07T08:52:55;25.47;;;14.53;;
19579;SDS011;9936;51.040;13.918;2023-12-07T08:56:43;24.97;;;14.53;;
19579;SDS011;9936;51.040;13.918;2023-12-07T09:00:30;30.40;;;15.37;;
19579;SDS011;9936;51.040;13.918;2023-12-07T09:04:17;26.70;;;14.80;;
19579;SDS011;9936;51.040;13.918;2023-12-07T09:08:09;28.63;;;15.97;;
19579;SDS011;9936;51.040;13.918;2023-12-07T09:11:55;28.60;;;14.20;;
19579;SDS011;9936;51.040;13.918;2023-12-07T09:15:41;30.17;;;14.83;;
19579;SDS011;9936;51.040;13.918;2023-12-07T09:19:27;30.47;;;15.37;;
19579;SDS011;9936;51.040;13.918;2023-12-07T09:23:13;29.17;;;15.80;;
19579;SDS011;9936;51.040;13.918;2023-12-07T09:27:02;27.03;;;15.07;;
19579;SDS011;9936;51.040;13.918;2023-12-07T09:30:48;29.70;;;16.60;;
19579;SDS011;9936;51.040;13.918;2023-12-07T09:34:33;34.90;;;19.00;;
19579;SDS011;9936;51.040;13.918;2023-12-07T09:38:19;31.97;;;18.73;;
19579;SDS011;9936;51.040;13.918;2023-12-07T09:42:05;34.30;;;17.37;;
19579;SDS011;9936;51.040;13.918;2023-12-07T09:45:51;31.83;;;17.27;;
19579;SDS011;9936;51.040;13.918;2023-12-07T09:49:39;41.20;;;24.60;;
19579;SDS011;9936;51.040;13.918;2023-12-07T09:53:25;28.03;;;15.77;;
19579;SDS011;9936;51.040;13.918;2023-12-07T09:57:14;31.63;;;15.87;;
19579;SDS011;9936;51.040;13.918;2023-12-07T10:01:00;30.03;;;16.70;;
19579;SDS011;9936;51.040;13.918;2023-12-07T10:04:46;31.00;;;17.03;;
19579;SDS011;9936;51.040;13.918;2023-12-07T10:08:33;31.57;;;17.40;;
19579;SDS011;9936;51.040;13.918;2023-12-07T10:12:22;30.17;;;15.97;;
19579;SDS011;9936;51.040;13.918;2023-12-07T10:16:11;30.63;;;16.50;;
19579;SDS011;9936;51.040;13.918;2023-12-07T10:20:08;30.50;;;16.90;;
19579;SDS011;9936;51.040;13.918;2023-12-07T10:23:54;29.30;;;16.20;;
19579;SDS011;9936;51.040;13.918;2023-12-07T10:27:41;29.03;;;15.27;;
19579;SDS011;9936;51.040;13.918;2023-12-07T10:31:27;29.60;;;15.67;;
19579;SDS011;9936;51.040;13.918;2023-12-07T10:35:16;29.97;;;16.03;;
19579;SDS011;9936;51.040;13.918;2023-12-07T10:39:02;31.80;;;16.90;;
19579;SDS011;9936;51.040;13.918;2023-12-07T10:42:52;32.47;;;16.90;;
19579;SDS011;9936;51.040;13.918;2023-12-07T10:46:42;31.30;;;16.10;;
19579;SDS011;9936;51.040;13.918;2023-12-07T10:50:28;31.10;;;16.80;;
19579;SDS011;9936;51.040;13.918;2023-12-07T10:54:16;32.07;;;16.43;;
19579;SDS011;9936;51.040;13.918;2023-12-07T10:58:08;31.10;;;16.53;;
19579;SDS011;9936;51.040;13.918;2023-12-07T11:01:55;36.50;;;19.40;;
19579;SDS011;9936;51.040;13.918;2023-12-07T11:05:46;35.93;;;18.17;;
19579;SDS011;9936;51.040;13.918;2023-12-07T11:09:32;31.90;;;16.60;;
19579;SDS011;9936;51.040;13.918;2023-12-07T11:13:30;30.30;;;16.80;;
19579;SDS011;9936;51.040;13.918;2023-12-07T11:17:21;33.50;;;17.43;;
19579;SDS011;9936;51.040;13.918;2023-12-07T11:21:07;32.80;;;16.93;;
19579;SDS011;9936;51.040;13.918;2023-12-07T11:24:53;36.40;;;18.07;;
19579;SDS011;9936;51.040;13.918;2023-12-07T11:28:42;33.27;;;17.07;;
19579;SDS011;9936;51.040;13.918;2023-12-07T11:32:28;32.17;;;16.47;;
19579;SDS011;9936;51.040;13.918;2023-12-07T11:36:14;30.50;;;16.57;;
19579;SDS011;9936;51.040;13.918;2023-12-07T11:40:00;30.90;;;16.23;;
19579;SDS011;9936;51.040;13.918;2023-12-07T11:43:46;35.93;;;18.57;;
19579;SDS011;9936;51.040;13.918;2023-12-07T11:47:31;34.37;;;17.33;;
19579;SDS011;9936;51.040;13.918;2023-12-07T11:51:17;32.67;;;17.03;;
19579;SDS011;9936;51.040;13.918;2023-12-07T11:55:03;33.77;;;17.80;;
19579;SDS011;9936;51.040;13.918;2023-12-07T11:58:49;36.27;;;17.80;;
19579;SDS011;9936;51.040;13.918;2023-12-07T12:02:35;32.97;;;17.13;;
19579;SDS011;9936;51.040;13.918;2023-12-07T12:06:23;32.03;;;16.80;;
19579;SDS011;9936;51.040;13.918;2023-12-07T12:10:12;33.63;;;17.03;;
19579;SDS011;9936;51.040;13.918;2023-12-07T12:13:58;29.70;;;15.97;;
19579;SDS011;9936;51.040;13.918;2023-12-07T12:17:43;31.67;;;17.00;;
19579;SDS011;9936;51.040;13.918;2023-12-07T12:21:33;32.43;;;16.63;;
19579;SDS011;9936;51.040;13.918;2023-12-07T12:25:23;30.33;;;16.17;;
19579;SDS011;9936;51.040;13.918;2023-12-07T12:29:18;30.87;;;17.67;;
19579;SDS011;9936;51.040;13.918;2023-12-07T12:33:06;30.30;;;16.50;;
19579;SDS011;9936;51.040;13.918;2023-12-07T12:36:55;31.83;;;17.00;;
19579;SDS011;9936;51.040;13.918;2023-12-07T12:40:41;29.47;;;16.43;;
19579;SDS011;9936;51.040;13.918;2023-12-07T12:44:28;33.43;;;16.80;;
19579;SDS011;9936;51.040;13.918;2023-12-07T12:48:15;34.07;;;16.93;;
19579;SDS011;9936;51.040;13.918;2023-12-07T12:52:00;31.03;;;16.47;;
19579;SDS011;9936;51.040;13.918;2023-12-07T12:55:46;31.27;;;15.87;;
19579;SDS011;9936;51.040;13.918;2023-12-07T12:59:32;37.40;;;17.37;;
19579;SDS011;9936;51.040;13.918;2023-12-07T13:03:17;34.83;;;17.33;;
19579;SDS011;9936;51.040;13.918;2023-12-07T13:07:03;32.07;;;15.97;;
19579;SDS011;9936;51.040;13.918;2023-12-07T13:10:49;33.60;;;17.30;;
19579;SDS011;9936;51.040;13.918;2023-12-07T13:14:35;31.70;;;16.50;;
19579;SDS011;9936;51.040;13.918;2023-12-07T13:18:22;31.93;;;15.90;;
19579;SDS011;9936;51.040;13.918;2023-12-07T13:22:08;27.23;;;14.70;;
19579;SDS011;9936;51.040;13.918;2023-12-07T13:25:54;26.90;;;15.27;;
19579;SDS011;9936;51.040;13.918;2023-12-07T13:29:40;27.93;;;15.27;;
19579;SDS011;9936;51.040;13.918;2023-12-07T13:33:26;26.47;;;15.17;;
19579;SDS011;9936;51.040;13.918;2023-12-07T13:37:12;28.17;;;15.97;;
19579;SDS011;9936;51.040;13.918;2023-12-07T13:40:57;38.03;;;19.53;;
19579;SDS011;9936;51.040;13.918;2023-12-07T13:44:43;25.60;;;14.70;;
19579;SDS011;9936;51.040;13.918;2023-12-07T13:48:29;28.60;;;15.27;;
19579;SDS011;9936;51.040;13.918;2023-12-07T13:52:15;27.70;;;15.00;;
19579;SDS011;9936;51.040;13.918;2023-12-07T13:56:02;29.27;;;15.33;;
19579;SDS011;9936;51.040;13.918;2023-12-07T13:59:49;32.43;;;16.70;;
19579;SDS011;9936;51.040;13.918;2023-12-07T14:03:36;30.00;;;17.80;;
19579;SDS011;9936;51.040;13.918;2023-12-07T14:07:22;30.83;;;17.13;;
19579;SDS011;9936;51.040;13.918;2023-12-07T14:11:08;40.27;;;22.33;;
19579;SDS011;9936;51.040;13.918;2023-12-07T14:14:56;31.33;;;18.17;;
19579;SDS011;9936;51.040;13.918;2023-12-07T14:18:42;35.20;;;18.90;;
19579;SDS011;9936;51.040;13.918;2023-12-07T14:22:27;33.57;;;18.13;;
19579;SDS011;9936;51.040;13.918;2023-12-07T14:26:13;33.17;;;18.33;;
19579;SDS011;9936;51.040;13.918;2023-12-07T14:29:59;34.30;;;19.83;;
19579;SDS011;9936;51.040;13.918;2023-12-07T14:33:44;38.70;;;19.93;;
19579;SDS011;9936;51.040;13.918;2023-12-07T14:37:30;37.10;;;20.50;;
19579;SDS011;9936;51.040;13.918;2023-12-07T14:41:16;34.57;;;18.83;;
19579;SDS011;9936;51.040;13.918;2023-12-07T14:45:02;37.57;;;20.53;;
19579;SDS011;9936;51.040;13.918;2023-12-07T14:48:49;43.17;;;22.60;;
19579;SDS011;9936;51.040;13.918;2023-12-07T14:52:36;48.03;;;24.93;;
19579;SDS011;9936;51.040;13.918;2023-12-07T14:56:22;42.03;;;22.63;;
19579;SDS011;9936;51.040;13.918;2023-12-07T15:00:08;41.87;;;22.93;;
19579;SDS011;9936;51.040;13.918;2023-12-07T15:03:54;39.23;;;22.07;;
19579;SDS011;9936;51.040;13.918;2023-12-07T15:07:40;43.20;;;25.07;;
19579;SDS011;9936;51.040;13.918;2023-12-07T15:11:26;42.70;;;22.57;;
19579;SDS011;9936;51.040;13.918;2023-12-07T15:15:11;44.47;;;23.10;;
19579;SDS011;9936;51.040;13.918;2023-12-07T15:18:57;34.87;;;20.13;;
19579;SDS011;9936;51.040;13.918;2023-12-07T15:22:43;34.27;;;18.33;;
19579;SDS011;9936;51.040;13.918;2023-12-07T15:26:29;35.13;;;19.13;;
19579;SDS011;9936;51.040;13.918;2023-12-07T15:30:15;35.27;;;18.90;;
19579;SDS011;9936;51.040;13.918;2023-12-07T15:34:01;37.67;;;22.17;;
19579;SDS011;9936;51.040;13.918;2023-12-07T15:37:46;36.03;;;20.20;;
19579;SDS011;9936;51.040;13.918;2023-12-07T15:41:32;38.90;;;21.10;;
19579;SDS011;9936;51.040;13.918;2023-12-07T15:45:18;35.63;;;20.27;;
19579;SDS011;9936;51.040;13.918;2023-12-07T15:49:03;39.57;;;21.03;;
19579;SDS011;9936;51.040;13.918;2023-12-07T15:52:49;41.73;;;21.70;;
19579;SDS011;9936;51.040;13.918;2023-12-07T15:56:44;47.33;;;23.30;;
19579;SDS011;9936;51.040;13.918;2023-12-07T16:00:30;41.30;;;21.53;;
19579;SDS011;9936;51.040;13.918;2023-12-07T16:04:15;33.30;;;19.03;;
19579;SDS011;9936;51.040;13.918;2023-12-07T16:08:03;38.10;;;18.97;;
19579;SDS011;9936;51.040;13.918;2023-12-07T16:11:49;34.47;;;19.33;;
19579;SDS011;9936;51.040;13.918;2023-12-07T16:15:34;36.37;;;19.97;;
19579;SDS011;9936;51.040;13.918;2023-12-07T16:19:20;32.60;;;18.63;;
19579;SDS011;9936;51.040;13.918;2023-12-07T16:23:06;36.57;;;19.53;;
19579;SDS011;9936;51.040;13.918;2023-12-07T16:26:52;34.97;;;19.67;;
19579;SDS011;9936;51.040;13.918;2023-12-07T16:30:44;32.70;;;18.17;;
19579;SDS011;9936;51.040;13.918;2023-12-07T16:34:29;32.50;;;17.77;;
19579;SDS011;9936;51.040;13.918;2023-12-07T16:38:16;35.93;;;19.00;;
19579;SDS011;9936;51.040;13.918;2023-12-07T16:42:01;31.43;;;18.80;;
19579;SDS011;9936;51.040;13.918;2023-12-07T16:45:49;32.33;;;18.37;;
19579;SDS011;9936;51.040;13.918;2023-12-07T16:49:35;32.07;;;18.10;;
19579;SDS011;9936;51.040;13.918;2023-12-07T16:53:20;33.57;;;17.90;;
19579;SDS011;9936;51.040;13.918;2023-12-07T16:57:07;30.17;;;16.97;;
19579;SDS011;9936;51.040;13.918;2023-12-07T17:00:52;29.73;;;16.87;;
19579;SDS011;9936;51.040;13.918;2023-12-07T17:04:38;34.50;;;17.43;;
19579;SDS011;9936;51.040;13.918;2023-12-07T17:08:25;29.23;;;16.00;;
19579;SDS011;9936;51.040;13.918;2023-12-07T17:12:10;29.57;;;15.50;;
19579;SDS011;9936;51.040;13.918;2023-12-07T17:15:56;32.20;;;18.17;;
19579;SDS011;9936;51.040;13.918;2023-12-07T17:19:41;32.30;;;17.23;;
19579;SDS011;9936;51.040;13.918;2023-12-07T17:23:27;39.00;;;26.10;;
19579;SDS011;9936;51.040;13.918;2023-12-07T17:27:13;39.80;;;21.30;;
19579;SDS011;9936;51.040;13.918;2023-12-07T17:30:59;31.23;;;18.80;;
19579;SDS011;9936;51.040;13.918;2023-12-07T17:34:45;38.53;;;20.17;;
19579;SDS011;9936;51.040;13.918;2023-12-07T17:38:30;33.00;;;19.03;;
19579;SDS011;9936;51.040;13.918;2023-12-07T17:42:16;30.73;;;17.73;;
19579;SDS011;9936;51.040;13.918;2023-12-07T17:46:02;35.27;;;19.10;;
19579;SDS011;9936;51.040;13.918;2023-12-07T17:49:47;33.90;;;19.30;;
19579;SDS011;9936;51.040;13.918;2023-12-07T17:53:33;35.27;;;20.27;;
19579;SDS011;9936;51.040;13.918;2023-12-07T17:57:19;43.63;;;22.57;;
19579;SDS011;9936;51.040;13.918;2023-12-07T18:01:05;46.50;;;23.97;;
19579;SDS011;9936;51.040;13.918;2023-12-07T18:04:50;49.60;;;24.03;;
19579;SDS011;9936;51.040;13.918;2023-12-07T18:08:36;47.80;;;24.83;;
19579;SDS011;9936;51.040;13.918;2023-12-07T18:12:22;47.30;;;23.93;;
19579;SDS011;9936;51.040;13.918;2023-12-07T18:16:07;48.40;;;24.67;;
19579;SDS011;9936;51.040;13.918;2023-12-07T18:19:53;47.43;;;23.47;;
19579;SDS011;9936;51.040;13.918;2023-12-07T18:23:38;35.40;;;19.53;;
19579;SDS011;9936;51.040;13.918;2023-12-07T18:27:28;33.50;;;18.33;;
19579;SDS011;9936;51.040;13.918;2023-12-07T18:31:13;32.53;;;17.37;;
19579;SDS011;9936;51.040;13.918;2023-12-07T18:34:59;30.23;;;16.30;;
19579;SDS011;9936;51.040;13.918;2023-12-07T18:38:46;33.53;;;18.50;;
19579;SDS011;9936;51.040;13.918;2023-12-07T18:42:31;38.57;;;21.13;;
19579;SDS011;9936;51.040;13.918;2023-12-07T18:46:18;43.57;;;20.90;;
19579;SDS011;9936;51.040;13.918;2023-12-07T18:50:04;41.47;;;20.93;;
19579;SDS011;9936;51.040;13.918;2023-12-07T18:53:50;33.93;;;18.03;;
19579;SDS011;9936;51.040;13.918;2023-12-07T18:57:35;34.90;;;18.93;;
19579;SDS011;9936;51.040;13.918;2023-12-07T19:05:20;33.13;;;17.23;;
19579;SDS011;9936;51.040;13.918;2023-12-07T19:09:06;31.80;;;16.97;;
19579;SDS011;9936;51.040;13.918;2023-12-07T19:12:53;34.53;;;17.73;;
19579;SDS011;9936;51.040;13.918;2023-12-07T19:16:40;51.73;;;26.77;;
19579;SDS011;9936;51.040;13.918;2023-12-07T19:20:26;59.27;;;31.27;;
19579;SDS011;9936;51.040;13.918;2023-12-07T19:24:11;61.80;;;31.30;;
19579;SDS011;9936;51.040;13.918;2023-12-07T19:27:57;47.47;;;23.90;;
19579;SDS011;9936;51.040;13.918;2023-12-07T19:31:43;41.83;;;21.27;;
19579;SDS011;9936;51.040;13.918;2023-12-07T19:35:29;33.13;;;18.00;;
19579;SDS011;9936;51.040;13.918;2023-12-07T19:39:15;31.10;;;17.27;;
19579;SDS011;9936;51.040;13.918;2023-12-07T19:43:01;33.97;;;18.03;;
19579;SDS011;9936;51.040;13.918;2023-12-07T19:46:46;30.60;;;17.60;;
19579;SDS011;9936;51.040;13.918;2023-12-07T19:50:32;38.50;;;18.97;;
19579;SDS011;9936;51.040;13.918;2023-12-07T19:54:17;33.80;;;18.37;;
19579;SDS011;9936;51.040;13.918;2023-12-07T19:58:08;32.07;;;17.40;;
19579;SDS011;9936;51.040;13.918;2023-12-07T20:01:55;32.10;;;18.00;;
19579;SDS011;9936;51.040;13.918;2023-12-07T20:05:42;34.23;;;17.37;;
19579;SDS011;9936;51.040;13.918;2023-12-07T20:09:29;33.87;;;17.43;;
19579;SDS011;9936;51.040;13.918;2023-12-07T20:13:15;32.13;;;17.37;;
19579;SDS011;9936;51.040;13.918;2023-12-07T20:17:01;32.47;;;16.37;;
19579;SDS011;9936;51.040;13.918;2023-12-07T20:20:47;31.77;;;16.83;;
19579;SDS011;9936;51.040;13.918;2023-12-07T20:24:32;32.87;;;17.30;;
19579;SDS011;9936;51.040;13.918;2023-12-07T20:28:18;30.10;;;16.70;;
19579;SDS011;9936;51.040;13.918;2023-12-07T20:32:04;33.33;;;16.13;;
19579;SDS011;9936;51.040;13.918;2023-12-07T20:35:50;29.50;;;16.03;;
19579;SDS011;9936;51.040;13.918;2023-12-07T20:39:35;27.50;;;14.93;;
19579;SDS011;9936;51.040;13.918;2023-12-07T20:43:21;29.83;;;15.43;;
19579;SDS011;9936;51.040;13.918;2023-12-07T20:47:06;31.40;;;16.60;;
19579;SDS011;9936;51.040;13.918;2023-12-07T20:50:52;32.23;;;16.23;;
19579;SDS011;9936;51.040;13.918;2023-12-07T20:54:38;28.30;;;15.60;;
19579;SDS011;9936;51.040;13.918;2023-12-07T20:58:24;31.10;;;15.47;;
19579;SDS011;9936;51.040;13.918;2023-12-07T21:02:16;27.87;;;15.23;;
19579;SDS011;9936;51.040;13.918;2023-12-07T21:06:02;29.60;;;15.33;;
19579;SDS011;9936;51.040;13.918;2023-12-07T21:09:48;28.17;;;15.17;;
19579;SDS011;9936;51.040;13.918;2023-12-07T21:13:36;29.17;;;14.80;;
19579;SDS011;9936;51.040;13.918;2023-12-07T21:17:22;31.10;;;15.40;;
19579;SDS011;9936;51.040;13.918;2023-12-07T21:21:07;27.80;;;14.37;;
19579;SDS011;9936;51.040;13.918;2023-12-07T21:24:53;28.53;;;15.53;;
19579;SDS011;9936;51.040;13.918;2023-12-07T21:28:39;30.20;;;15.27;;
19579;SDS011;9936;51.040;13.918;2023-12-07T21:32:25;29.10;;;14.53;;
19579;SDS011;9936;51.040;13.918;2023-12-07T21:36:12;29.03;;;14.83;;
19579;SDS011;9936;51.040;13.918;2023-12-07T21:39:57;30.53;;;15.60;;
19579;SDS011;9936;51.040;13.918;2023-12-07T21:43:43;32.13;;;16.40;;
19579;SDS011;9936;51.040;13.918;2023-12-07T21:47:29;29.27;;;16.27;;
19579;SDS011;9936;51.040;13.918;2023-12-07T21:51:14;31.97;;;15.90;;
19579;SDS011;9936;51.040;13.918;2023-12-07T21:55:00;29.13;;;15.87;;
19579;SDS011;9936;51.040;13.918;2023-12-07T21:58:47;32.77;;;15.43;;
19579;SDS011;9936;51.040;13.918;2023-12-07T22:02:32;31.10;;;15.10;;
19579;SDS011;9936;51.040;13.918;2023-12-07T22:06:25;28.67;;;15.60;;